sensor_id;sensor_type;location;lat;lon;timestamp;P1;durP1;ratioP1;P2;durP2;ratioP2
35847;SDS011;22332;51.954;20.118;2022-08-04T00:01:50;10.10;;;9.10;;
35847;SDS011;22332;51.954;20.118;2022-08-04T00:05:05;9.90;;;8.90;;
35847;SDS011;22332;51.954;20.118;2022-08-04T00:08:21;10.80;;;9.80;;
35847;SDS011;22332;51.954;20.118;2022-08-04T00:11:34;9.70;;;8.20;;
35847;SDS011;22332;51.954;20.118;2022-08-04T00:14:48;8.40;;;7.60;;
35847;SDS011;22332;51.954;20.118;2022-08-04T00:17:57;9.70;;;8.70;;
35847;SDS011;22332;51.954;20.118;2022-08-04T00:21:06;9.50;;;8.50;;
35847;SDS011;22332;51.954;20.118;2022-08-04T00:24:15;9.60;;;8.60;;
35847;SDS011;22332;51.954;20.118;2022-08-04T00:27:20;9.50;;;8.50;;
35847;SDS011;22332;51.954;20.118;2022-08-04T00:30:26;10.40;;;9.40;;
35847;SDS011;22332;51.954;20.118;2022-08-04T00:33:32;10.10;;;9.20;;
35847;SDS011;22332;51.954;20.118;2022-08-04T00:36:38;9.40;;;8.10;;
35847;SDS011;22332;51.954;20.118;2022-08-04T00:39:45;8.80;;;8.00;;
35847;SDS011;22332;51.954;20.118;2022-08-04T00:42:53;9.40;;;8.40;;
35847;SDS011;22332;51.954;20.118;2022-08-04T00:46:14;9.60;;;8.40;;
35847;SDS011;22332;51.954;20.118;2022-08-04T00:49:46;9.80;;;8.90;;
35847;SDS011;22332;51.954;20.118;2022-08-04T00:53:07;9.20;;;8.30;;
35847;SDS011;22332;51.954;20.118;2022-08-04T00:56:31;9.60;;;8.20;;
35847;SDS011;22332;51.954;20.118;2022-08-04T00:59:59;7.90;;;7.20;;
35847;SDS011;22332;51.954;20.118;2022-08-04T01:03:13;8.40;;;7.30;;
35847;SDS011;22332;51.954;20.118;2022-08-04T01:06:31;8.90;;;8.10;;
35847;SDS011;22332;51.954;20.118;2022-08-04T01:09:43;8.60;;;7.80;;
35847;SDS011;22332;51.954;20.118;2022-08-04T01:13:06;9.30;;;8.40;;
35847;SDS011;22332;51.954;20.118;2022-08-04T01:16:28;9.30;;;8.40;;
35847;SDS011;22332;51.954;20.118;2022-08-04T01:19:45;9.80;;;8.90;;
35847;SDS011;22332;51.954;20.118;2022-08-04T01:26:58;7.70;;;7.00;;
35847;SDS011;22332;51.954;20.118;2022-08-04T01:30:06;8.20;;;7.40;;
35847;SDS011;22332;51.954;20.118;2022-08-04T01:33:12;9.20;;;8.30;;
35847;SDS011;22332;51.954;20.118;2022-08-04T01:36:19;8.60;;;7.80;;
35847;SDS011;22332;51.954;20.118;2022-08-04T01:39:32;9.30;;;8.50;;
35847;SDS011;22332;51.954;20.118;2022-08-04T01:42:44;9.80;;;8.20;;
35847;SDS011;22332;51.954;20.118;2022-08-04T01:45:56;10.80;;;9.40;;
35847;SDS011;22332;51.954;20.118;2022-08-04T01:49:02;7.90;;;7.10;;
35847;SDS011;22332;51.954;20.118;2022-08-04T01:52:10;8.00;;;7.30;;
35847;SDS011;22332;51.954;20.118;2022-08-04T01:55:17;8.40;;;7.50;;
35847;SDS011;22332;51.954;20.118;2022-08-04T01:58:23;8.70;;;7.90;;
35847;SDS011;22332;51.954;20.118;2022-08-04T02:01:31;8.60;;;7.70;;
35847;SDS011;22332;51.954;20.118;2022-08-04T02:04:39;8.60;;;7.80;;
35847;SDS011;22332;51.954;20.118;2022-08-04T02:07:49;8.70;;;7.90;;
35847;SDS011;22332;51.954;20.118;2022-08-04T02:11:06;9.10;;;7.80;;
35847;SDS011;22332;51.954;20.118;2022-08-04T02:14:18;7.80;;;7.10;;
35847;SDS011;22332;51.954;20.118;2022-08-04T02:17:44;7.40;;;6.70;;
35847;SDS011;22332;51.954;20.118;2022-08-04T02:20:59;7.90;;;7.10;;
35847;SDS011;22332;51.954;20.118;2022-08-04T02:24:07;9.20;;;8.00;;
35847;SDS011;22332;51.954;20.118;2022-08-04T02:27:17;9.60;;;7.90;;
35847;SDS011;22332;51.954;20.118;2022-08-04T02:30:30;8.80;;;7.90;;
35847;SDS011;22332;51.954;20.118;2022-08-04T02:33:43;9.70;;;8.70;;
35847;SDS011;22332;51.954;20.118;2022-08-04T02:36:54;8.70;;;7.50;;
35847;SDS011;22332;51.954;20.118;2022-08-04T02:40:02;8.00;;;7.30;;
35847;SDS011;22332;51.954;20.118;2022-08-04T02:43:09;7.20;;;6.50;;
35847;SDS011;22332;51.954;20.118;2022-08-04T02:46:18;7.90;;;7.00;;
35847;SDS011;22332;51.954;20.118;2022-08-04T02:49:24;7.90;;;7.10;;
35847;SDS011;22332;51.954;20.118;2022-08-04T02:52:31;9.70;;;7.70;;
35847;SDS011;22332;51.954;20.118;2022-08-04T02:55:38;8.20;;;7.50;;
35847;SDS011;22332;51.954;20.118;2022-08-04T02:58:44;9.70;;;8.70;;
35847;SDS011;22332;51.954;20.118;2022-08-04T03:01:55;9.50;;;7.60;;
35847;SDS011;22332;51.954;20.118;2022-08-04T03:05:02;8.90;;;6.40;;
35847;SDS011;22332;51.954;20.118;2022-08-04T03:08:27;10.20;;;7.50;;
35847;SDS011;22332;51.954;20.118;2022-08-04T03:11:53;7.80;;;6.80;;
35847;SDS011;22332;51.954;20.118;2022-08-04T03:15:28;8.20;;;7.30;;
35847;SDS011;22332;51.954;20.118;2022-08-04T03:18:55;9.20;;;8.20;;
35847;SDS011;22332;51.954;20.118;2022-08-04T03:22:33;9.00;;;8.20;;
35847;SDS011;22332;51.954;20.118;2022-08-04T03:26:04;7.40;;;6.70;;
35847;SDS011;22332;51.954;20.118;2022-08-04T03:29:36;6.80;;;6.20;;
35847;SDS011;22332;51.954;20.118;2022-08-04T03:33:19;7.60;;;6.90;;
35847;SDS011;22332;51.954;20.118;2022-08-04T03:37:07;8.30;;;7.00;;
35847;SDS011;22332;51.954;20.118;2022-08-04T03:40:24;8.50;;;7.70;;
35847;SDS011;22332;51.954;20.118;2022-08-04T03:44:01;8.40;;;7.60;;
35847;SDS011;22332;51.954;20.118;2022-08-04T03:51:05;7.90;;;7.10;;
35847;SDS011;22332;51.954;20.118;2022-08-04T04:01:59;9.30;;;7.80;;
35847;SDS011;22332;51.954;20.118;2022-08-04T04:09:20;8.30;;;7.20;;
35847;SDS011;22332;51.954;20.118;2022-08-04T04:12:51;7.10;;;6.40;;
35847;SDS011;22332;51.954;20.118;2022-08-04T04:16:27;7.90;;;7.20;;
35847;SDS011;22332;51.954;20.118;2022-08-04T04:19:53;8.20;;;7.40;;
35847;SDS011;22332;51.954;20.118;2022-08-04T04:23:14;8.40;;;7.60;;
35847;SDS011;22332;51.954;20.118;2022-08-04T04:26:48;8.10;;;7.30;;
35847;SDS011;22332;51.954;20.118;2022-08-04T04:30:04;8.40;;;7.60;;
35847;SDS011;22332;51.954;20.118;2022-08-04T04:33:21;9.10;;;7.30;;
35847;SDS011;22332;51.954;20.118;2022-08-04T04:36:42;8.40;;;7.50;;
35847;SDS011;22332;51.954;20.118;2022-08-04T04:40:02;8.90;;;8.10;;
35847;SDS011;22332;51.954;20.118;2022-08-04T04:43:23;9.30;;;8.50;;
35847;SDS011;22332;51.954;20.118;2022-08-04T04:46:47;11.30;;;10.10;;
35847;SDS011;22332;51.954;20.118;2022-08-04T04:50:02;11.00;;;9.90;;
35847;SDS011;22332;51.954;20.118;2022-08-04T04:53:15;11.80;;;10.60;;
35847;SDS011;22332;51.954;20.118;2022-08-04T04:56:27;11.30;;;10.10;;
35847;SDS011;22332;51.954;20.118;2022-08-04T04:59:41;10.00;;;9.00;;
35847;SDS011;22332;51.954;20.118;2022-08-04T05:06:28;10.90;;;9.80;;
35847;SDS011;22332;51.954;20.118;2022-08-04T05:09:53;11.00;;;9.90;;
35847;SDS011;22332;51.954;20.118;2022-08-04T05:13:23;10.60;;;9.50;;
35847;SDS011;22332;51.954;20.118;2022-08-04T05:16:38;11.30;;;10.10;;
35847;SDS011;22332;51.954;20.118;2022-08-04T05:19:52;10.70;;;9.60;;
35847;SDS011;22332;51.954;20.118;2022-08-04T05:23:02;11.00;;;9.00;;
35847;SDS011;22332;51.954;20.118;2022-08-04T05:26:12;9.30;;;8.40;;
35847;SDS011;22332;51.954;20.118;2022-08-04T05:29:25;9.20;;;8.40;;
35847;SDS011;22332;51.954;20.118;2022-08-04T05:32:34;10.00;;;9.00;;
35847;SDS011;22332;51.954;20.118;2022-08-04T05:35:47;9.80;;;8.90;;
35847;SDS011;22332;51.954;20.118;2022-08-04T05:38:57;10.20;;;9.30;;
35847;SDS011;22332;51.954;20.118;2022-08-04T05:42:06;10.10;;;9.00;;
35847;SDS011;22332;51.954;20.118;2022-08-04T05:45:14;9.80;;;8.80;;
35847;SDS011;22332;51.954;20.118;2022-08-04T05:48:20;9.50;;;8.50;;
35847;SDS011;22332;51.954;20.118;2022-08-04T05:51:27;9.20;;;8.20;;
35847;SDS011;22332;51.954;20.118;2022-08-04T05:54:33;8.60;;;7.80;;
35847;SDS011;22332;51.954;20.118;2022-08-04T05:57:40;8.70;;;7.80;;
35847;SDS011;22332;51.954;20.118;2022-08-04T06:00:46;8.80;;;8.00;;
35847;SDS011;22332;51.954;20.118;2022-08-04T06:03:55;8.70;;;7.90;;
35847;SDS011;22332;51.954;20.118;2022-08-04T06:07:02;9.50;;;8.30;;
35847;SDS011;22332;51.954;20.118;2022-08-04T06:10:09;8.50;;;7.70;;
35847;SDS011;22332;51.954;20.118;2022-08-04T06:13:16;8.20;;;7.40;;
35847;SDS011;22332;51.954;20.118;2022-08-04T06:16:30;8.50;;;7.40;;
35847;SDS011;22332;51.954;20.118;2022-08-04T06:19:40;8.00;;;7.10;;
35847;SDS011;22332;51.954;20.118;2022-08-04T06:22:49;8.90;;;8.00;;
35847;SDS011;22332;51.954;20.118;2022-08-04T06:25:58;8.40;;;7.50;;
35847;SDS011;22332;51.954;20.118;2022-08-04T06:29:05;8.50;;;7.70;;
35847;SDS011;22332;51.954;20.118;2022-08-04T06:32:19;8.50;;;7.60;;
35847;SDS011;22332;51.954;20.118;2022-08-04T06:35:29;8.90;;;8.10;;
35847;SDS011;22332;51.954;20.118;2022-08-04T06:38:36;8.20;;;7.10;;
35847;SDS011;22332;51.954;20.118;2022-08-04T06:41:42;9.50;;;6.30;;
35847;SDS011;22332;51.954;20.118;2022-08-04T06:44:50;7.20;;;6.50;;
35847;SDS011;22332;51.954;20.118;2022-08-04T06:47:58;7.40;;;6.70;;
35847;SDS011;22332;51.954;20.118;2022-08-04T06:51:04;7.70;;;6.90;;
35847;SDS011;22332;51.954;20.118;2022-08-04T06:54:11;7.50;;;6.80;;
35847;SDS011;22332;51.954;20.118;2022-08-04T06:57:17;7.90;;;7.10;;
35847;SDS011;22332;51.954;20.118;2022-08-04T07:00:24;7.80;;;6.60;;
35847;SDS011;22332;51.954;20.118;2022-08-04T07:03:31;7.40;;;6.70;;
35847;SDS011;22332;51.954;20.118;2022-08-04T07:06:36;7.20;;;6.60;;
35847;SDS011;22332;51.954;20.118;2022-08-04T07:09:42;7.40;;;6.80;;
35847;SDS011;22332;51.954;20.118;2022-08-04T07:12:47;11.60;;;6.90;;
35847;SDS011;22332;51.954;20.118;2022-08-04T07:15:54;7.50;;;6.60;;
35847;SDS011;22332;51.954;20.118;2022-08-04T07:19:00;7.70;;;6.90;;
35847;SDS011;22332;51.954;20.118;2022-08-04T07:22:06;9.50;;;6.90;;
35847;SDS011;22332;51.954;20.118;2022-08-04T07:25:13;7.00;;;6.20;;
35847;SDS011;22332;51.954;20.118;2022-08-04T07:28:19;6.80;;;6.10;;
35847;SDS011;22332;51.954;20.118;2022-08-04T07:31:26;6.50;;;5.80;;
35847;SDS011;22332;51.954;20.118;2022-08-04T07:34:33;6.30;;;5.50;;
35847;SDS011;22332;51.954;20.118;2022-08-04T07:37:39;5.80;;;5.30;;
35847;SDS011;22332;51.954;20.118;2022-08-04T07:40:45;6.20;;;5.60;;
35847;SDS011;22332;51.954;20.118;2022-08-04T07:43:51;6.10;;;5.50;;
35847;SDS011;22332;51.954;20.118;2022-08-04T07:46:57;5.70;;;5.20;;
35847;SDS011;22332;51.954;20.118;2022-08-04T07:50:05;5.80;;;5.30;;
35847;SDS011;22332;51.954;20.118;2022-08-04T07:53:12;5.50;;;5.00;;
35847;SDS011;22332;51.954;20.118;2022-08-04T07:56:18;5.10;;;4.70;;
35847;SDS011;22332;51.954;20.118;2022-08-04T07:59:24;6.20;;;4.70;;
35847;SDS011;22332;51.954;20.118;2022-08-04T08:02:29;5.50;;;4.90;;
35847;SDS011;22332;51.954;20.118;2022-08-04T08:05:36;5.30;;;4.80;;
35847;SDS011;22332;51.954;20.118;2022-08-04T08:08:43;5.10;;;4.70;;
35847;SDS011;22332;51.954;20.118;2022-08-04T08:11:49;5.10;;;4.70;;
35847;SDS011;22332;51.954;20.118;2022-08-04T08:14:56;4.90;;;4.50;;
35847;SDS011;22332;51.954;20.118;2022-08-04T08:18:02;4.70;;;4.20;;
35847;SDS011;22332;51.954;20.118;2022-08-04T08:21:08;5.20;;;4.70;;
35847;SDS011;22332;51.954;20.118;2022-08-04T08:24:13;5.00;;;4.60;;
35847;SDS011;22332;51.954;20.118;2022-08-04T08:27:19;5.30;;;4.70;;
35847;SDS011;22332;51.954;20.118;2022-08-04T08:30:26;5.30;;;4.80;;
35847;SDS011;22332;51.954;20.118;2022-08-04T08:33:31;5.00;;;4.50;;
35847;SDS011;22332;51.954;20.118;2022-08-04T08:36:37;4.80;;;4.40;;
35847;SDS011;22332;51.954;20.118;2022-08-04T08:39:48;5.00;;;4.60;;
35847;SDS011;22332;51.954;20.118;2022-08-04T08:43:05;5.80;;;5.00;;
35847;SDS011;22332;51.954;20.118;2022-08-04T08:50:13;6.10;;;4.90;;
35847;SDS011;22332;51.954;20.118;2022-08-04T08:56:57;5.20;;;4.60;;
35847;SDS011;22332;51.954;20.118;2022-08-04T09:00:13;5.30;;;4.50;;
35847;SDS011;22332;51.954;20.118;2022-08-04T09:03:31;4.90;;;4.50;;
35847;SDS011;22332;51.954;20.118;2022-08-04T09:06:52;5.50;;;4.60;;
35847;SDS011;22332;51.954;20.118;2022-08-04T09:10:13;5.00;;;4.50;;
35847;SDS011;22332;51.954;20.118;2022-08-04T09:13:25;4.90;;;4.50;;
35847;SDS011;22332;51.954;20.118;2022-08-04T09:16:37;5.40;;;4.60;;
35847;SDS011;22332;51.954;20.118;2022-08-04T09:19:50;4.80;;;4.40;;
35847;SDS011;22332;51.954;20.118;2022-08-04T09:23:03;5.10;;;4.70;;
35847;SDS011;22332;51.954;20.118;2022-08-04T09:26:18;5.00;;;4.50;;
35847;SDS011;22332;51.954;20.118;2022-08-04T09:29:32;6.30;;;4.30;;
35847;SDS011;22332;51.954;20.118;2022-08-04T09:32:53;5.60;;;5.10;;
35847;SDS011;22332;51.954;20.118;2022-08-04T09:36:12;4.50;;;4.10;;
35847;SDS011;22332;51.954;20.118;2022-08-04T09:39:29;5.00;;;4.50;;
35847;SDS011;22332;51.954;20.118;2022-08-04T09:42:44;4.90;;;4.50;;
35847;SDS011;22332;51.954;20.118;2022-08-04T09:45:59;4.50;;;3.80;;
35847;SDS011;22332;51.954;20.118;2022-08-04T09:49:11;4.30;;;3.90;;
35847;SDS011;22332;51.954;20.118;2022-08-04T09:52:22;3.90;;;3.60;;
35847;SDS011;22332;51.954;20.118;2022-08-04T09:55:40;3.90;;;3.60;;
35847;SDS011;22332;51.954;20.118;2022-08-04T09:58:53;6.90;;;4.10;;
35847;SDS011;22332;51.954;20.118;2022-08-04T10:02:08;5.00;;;3.80;;
35847;SDS011;22332;51.954;20.118;2022-08-04T10:05:19;4.00;;;3.50;;
35847;SDS011;22332;51.954;20.118;2022-08-04T10:08:33;4.40;;;3.50;;
35847;SDS011;22332;51.954;20.118;2022-08-04T10:12:02;3.60;;;3.40;;
35847;SDS011;22332;51.954;20.118;2022-08-04T10:15:19;3.80;;;3.50;;
35847;SDS011;22332;51.954;20.118;2022-08-04T10:18:39;4.00;;;3.70;;
35847;SDS011;22332;51.954;20.118;2022-08-04T10:22:02;4.00;;;3.40;;
35847;SDS011;22332;51.954;20.118;2022-08-04T10:25:16;3.70;;;3.40;;
35847;SDS011;22332;51.954;20.118;2022-08-04T10:28:34;4.10;;;3.70;;
35847;SDS011;22332;51.954;20.118;2022-08-04T10:31:47;4.00;;;3.60;;
35847;SDS011;22332;51.954;20.118;2022-08-04T10:35:10;3.80;;;3.30;;
35847;SDS011;22332;51.954;20.118;2022-08-04T10:38:19;4.70;;;4.10;;
35847;SDS011;22332;51.954;20.118;2022-08-04T10:41:37;3.60;;;3.30;;
35847;SDS011;22332;51.954;20.118;2022-08-04T10:44:59;4.20;;;3.80;;
35847;SDS011;22332;51.954;20.118;2022-08-04T10:48:18;3.70;;;3.40;;
35847;SDS011;22332;51.954;20.118;2022-08-04T10:51:37;3.50;;;3.20;;
35847;SDS011;22332;51.954;20.118;2022-08-04T10:54:49;3.60;;;3.30;;
35847;SDS011;22332;51.954;20.118;2022-08-04T10:58:01;4.00;;;3.30;;
35847;SDS011;22332;51.954;20.118;2022-08-04T11:01:10;3.80;;;3.50;;
35847;SDS011;22332;51.954;20.118;2022-08-04T11:04:22;3.60;;;3.30;;
35847;SDS011;22332;51.954;20.118;2022-08-04T11:07:44;3.50;;;3.20;;
35847;SDS011;22332;51.954;20.118;2022-08-04T11:10:58;3.60;;;3.20;;
35847;SDS011;22332;51.954;20.118;2022-08-04T11:17:16;3.80;;;3.40;;
35847;SDS011;22332;51.954;20.118;2022-08-04T11:20:27;3.80;;;3.40;;
35847;SDS011;22332;51.954;20.118;2022-08-04T11:23:41;3.80;;;3.50;;
35847;SDS011;22332;51.954;20.118;2022-08-04T11:26:52;4.00;;;3.70;;
35847;SDS011;22332;51.954;20.118;2022-08-04T11:30:02;3.90;;;3.60;;
35847;SDS011;22332;51.954;20.118;2022-08-04T11:33:12;3.90;;;3.60;;
35847;SDS011;22332;51.954;20.118;2022-08-04T11:36:27;4.30;;;3.60;;
35847;SDS011;22332;51.954;20.118;2022-08-04T11:39:40;4.00;;;3.60;;
35847;SDS011;22332;51.954;20.118;2022-08-04T11:42:54;3.90;;;3.60;;
35847;SDS011;22332;51.954;20.118;2022-08-04T11:46:12;3.80;;;3.50;;
35847;SDS011;22332;51.954;20.118;2022-08-04T11:49:28;3.80;;;3.50;;
35847;SDS011;22332;51.954;20.118;2022-08-04T11:52:39;5.00;;;3.20;;
35847;SDS011;22332;51.954;20.118;2022-08-04T11:55:48;3.80;;;3.50;;
35847;SDS011;22332;51.954;20.118;2022-08-04T11:58:55;4.30;;;3.90;;
35847;SDS011;22332;51.954;20.118;2022-08-04T12:02:10;3.80;;;3.40;;
35847;SDS011;22332;51.954;20.118;2022-08-04T12:05:33;4.40;;;3.60;;
35847;SDS011;22332;51.954;20.118;2022-08-04T12:12:17;3.80;;;3.50;;
35847;SDS011;22332;51.954;20.118;2022-08-04T12:15:28;3.90;;;3.60;;
35847;SDS011;22332;51.954;20.118;2022-08-04T12:21:47;3.80;;;3.50;;
35847;SDS011;22332;51.954;20.118;2022-08-04T12:24:58;4.10;;;3.60;;
35847;SDS011;22332;51.954;20.118;2022-08-04T12:28:06;3.20;;;3.00;;
35847;SDS011;22332;51.954;20.118;2022-08-04T12:31:23;3.50;;;3.20;;
35847;SDS011;22332;51.954;20.118;2022-08-04T12:34:33;4.80;;;3.20;;
35847;SDS011;22332;51.954;20.118;2022-08-04T12:37:45;3.50;;;3.20;;
35847;SDS011;22332;51.954;20.118;2022-08-04T12:41:01;3.60;;;3.30;;
35847;SDS011;22332;51.954;20.118;2022-08-04T12:44:08;4.60;;;3.30;;
35847;SDS011;22332;51.954;20.118;2022-08-04T12:47:16;3.80;;;3.30;;
35847;SDS011;22332;51.954;20.118;2022-08-04T12:50:26;3.70;;;3.40;;
35847;SDS011;22332;51.954;20.118;2022-08-04T12:53:36;4.00;;;3.60;;
35847;SDS011;22332;51.954;20.118;2022-08-04T12:56:44;4.10;;;3.10;;
35847;SDS011;22332;51.954;20.118;2022-08-04T12:59:51;3.10;;;2.90;;
35847;SDS011;22332;51.954;20.118;2022-08-04T13:02:59;3.20;;;2.90;;
35847;SDS011;22332;51.954;20.118;2022-08-04T13:06:09;3.30;;;3.00;;
35847;SDS011;22332;51.954;20.118;2022-08-04T13:09:18;3.30;;;3.00;;
35847;SDS011;22332;51.954;20.118;2022-08-04T13:12:26;3.60;;;3.00;;
35847;SDS011;22332;51.954;20.118;2022-08-04T13:15:32;4.20;;;2.90;;
35847;SDS011;22332;51.954;20.118;2022-08-04T13:18:38;3.40;;;2.80;;
35847;SDS011;22332;51.954;20.118;2022-08-04T13:21:49;3.20;;;3.00;;
35847;SDS011;22332;51.954;20.118;2022-08-04T13:24:57;5.30;;;2.80;;
35847;SDS011;22332;51.954;20.118;2022-08-04T13:28:03;3.10;;;2.80;;
35847;SDS011;22332;51.954;20.118;2022-08-04T13:31:12;3.20;;;2.90;;
35847;SDS011;22332;51.954;20.118;2022-08-04T13:34:19;3.60;;;3.20;;
35847;SDS011;22332;51.954;20.118;2022-08-04T13:37:30;3.30;;;3.00;;
35847;SDS011;22332;51.954;20.118;2022-08-04T13:40:37;3.30;;;3.10;;
35847;SDS011;22332;51.954;20.118;2022-08-04T13:43:45;3.90;;;3.00;;
35847;SDS011;22332;51.954;20.118;2022-08-04T13:46:54;3.40;;;3.10;;
35847;SDS011;22332;51.954;20.118;2022-08-04T13:50:16;3.30;;;3.00;;
35847;SDS011;22332;51.954;20.118;2022-08-04T13:53:24;3.00;;;2.80;;
35847;SDS011;22332;51.954;20.118;2022-08-04T13:56:31;3.30;;;2.90;;
35847;SDS011;22332;51.954;20.118;2022-08-04T13:59:40;3.40;;;3.20;;
35847;SDS011;22332;51.954;20.118;2022-08-04T14:02:55;3.30;;;3.00;;
35847;SDS011;22332;51.954;20.118;2022-08-04T14:06:08;3.70;;;3.00;;
35847;SDS011;22332;51.954;20.118;2022-08-04T14:09:16;4.00;;;2.80;;
35847;SDS011;22332;51.954;20.118;2022-08-04T14:12:23;3.00;;;2.70;;
35847;SDS011;22332;51.954;20.118;2022-08-04T14:15:29;5.00;;;2.90;;
35847;SDS011;22332;51.954;20.118;2022-08-04T14:18:37;4.00;;;3.10;;
35847;SDS011;22332;51.954;20.118;2022-08-04T14:21:42;3.30;;;3.00;;
35847;SDS011;22332;51.954;20.118;2022-08-04T14:24:47;3.60;;;3.20;;
35847;SDS011;22332;51.954;20.118;2022-08-04T14:28:00;3.30;;;3.00;;
35847;SDS011;22332;51.954;20.118;2022-08-04T14:31:10;26.00;;;9.60;;
35847;SDS011;22332;51.954;20.118;2022-08-04T14:34:27;4.60;;;3.30;;
35847;SDS011;22332;51.954;20.118;2022-08-04T14:37:33;3.40;;;3.10;;
35847;SDS011;22332;51.954;20.118;2022-08-04T14:40:39;4.20;;;2.90;;
35847;SDS011;22332;51.954;20.118;2022-08-04T14:43:47;8.00;;;4.80;;
35847;SDS011;22332;51.954;20.118;2022-08-04T14:46:55;4.50;;;3.10;;
35847;SDS011;22332;51.954;20.118;2022-08-04T14:50:01;13.40;;;6.00;;
35847;SDS011;22332;51.954;20.118;2022-08-04T14:53:07;8.20;;;3.40;;
35847;SDS011;22332;51.954;20.118;2022-08-04T14:56:13;3.50;;;3.20;;
35847;SDS011;22332;51.954;20.118;2022-08-04T14:59:19;6.60;;;3.30;;
35847;SDS011;22332;51.954;20.118;2022-08-04T15:02:26;3.20;;;2.90;;
35847;SDS011;22332;51.954;20.118;2022-08-04T15:05:31;5.20;;;3.20;;
35847;SDS011;22332;51.954;20.118;2022-08-04T15:08:37;3.70;;;3.40;;
35847;SDS011;22332;51.954;20.118;2022-08-04T15:11:43;3.90;;;3.10;;
35847;SDS011;22332;51.954;20.118;2022-08-04T15:14:48;7.30;;;3.40;;
35847;SDS011;22332;51.954;20.118;2022-08-04T15:17:54;5.70;;;4.40;;
35847;SDS011;22332;51.954;20.118;2022-08-04T15:21:00;6.60;;;3.50;;
35847;SDS011;22332;51.954;20.118;2022-08-04T15:24:07;3.50;;;3.20;;
35847;SDS011;22332;51.954;20.118;2022-08-04T15:27:13;6.60;;;3.20;;
35847;SDS011;22332;51.954;20.118;2022-08-04T15:30:21;3.60;;;3.10;;
35847;SDS011;22332;51.954;20.118;2022-08-04T15:33:28;4.30;;;3.80;;
35847;SDS011;22332;51.954;20.118;2022-08-04T15:36:36;3.30;;;3.00;;
35847;SDS011;22332;51.954;20.118;2022-08-04T15:39:47;3.20;;;2.90;;
35847;SDS011;22332;51.954;20.118;2022-08-04T15:43:04;3.90;;;3.00;;
35847;SDS011;22332;51.954;20.118;2022-08-04T15:46:14;3.40;;;3.10;;
35847;SDS011;22332;51.954;20.118;2022-08-04T15:49:24;3.40;;;3.10;;
35847;SDS011;22332;51.954;20.118;2022-08-04T15:52:30;3.70;;;2.80;;
35847;SDS011;22332;51.954;20.118;2022-08-04T15:56:03;3.50;;;3.00;;
35847;SDS011;22332;51.954;20.118;2022-08-04T15:59:58;3.60;;;3.10;;
35847;SDS011;22332;51.954;20.118;2022-08-04T16:09:50;3.70;;;3.20;;
35847;SDS011;22332;51.954;20.118;2022-08-04T16:12:55;4.80;;;4.30;;
35847;SDS011;22332;51.954;20.118;2022-08-04T16:16:06;4.90;;;4.40;;
35847;SDS011;22332;51.954;20.118;2022-08-04T16:19:13;4.80;;;4.30;;
35847;SDS011;22332;51.954;20.118;2022-08-04T16:22:32;4.50;;;3.50;;
35847;SDS011;22332;51.954;20.118;2022-08-04T16:25:44;6.10;;;4.10;;
35847;SDS011;22332;51.954;20.118;2022-08-04T16:28:50;8.80;;;5.70;;
35847;SDS011;22332;51.954;20.118;2022-08-04T16:35:27;6.00;;;5.00;;
35847;SDS011;22332;51.954;20.118;2022-08-04T16:38:32;6.60;;;4.80;;
35847;SDS011;22332;51.954;20.118;2022-08-04T16:45:43;4.10;;;3.70;;
35847;SDS011;22332;51.954;20.118;2022-08-04T16:49:05;6.40;;;4.30;;
35847;SDS011;22332;51.954;20.118;2022-08-04T16:52:10;5.40;;;4.90;;
35847;SDS011;22332;51.954;20.118;2022-08-04T16:55:16;5.90;;;4.80;;
35847;SDS011;22332;51.954;20.118;2022-08-04T16:58:27;6.30;;;5.50;;
35847;SDS011;22332;51.954;20.118;2022-08-04T17:01:34;5.40;;;4.80;;
35847;SDS011;22332;51.954;20.118;2022-08-04T17:04:41;5.80;;;5.20;;
35847;SDS011;22332;51.954;20.118;2022-08-04T17:07:49;6.20;;;4.90;;
35847;SDS011;22332;51.954;20.118;2022-08-04T17:10:56;6.10;;;5.30;;
35847;SDS011;22332;51.954;20.118;2022-08-04T17:14:02;12.80;;;6.10;;
35847;SDS011;22332;51.954;20.118;2022-08-04T17:17:07;8.20;;;7.20;;
35847;SDS011;22332;51.954;20.118;2022-08-04T17:20:12;7.60;;;6.10;;
35847;SDS011;22332;51.954;20.118;2022-08-04T17:23:25;7.00;;;5.80;;
35847;SDS011;22332;51.954;20.118;2022-08-04T17:26:34;7.70;;;4.60;;
35847;SDS011;22332;51.954;20.118;2022-08-04T17:29:41;4.40;;;3.70;;
35847;SDS011;22332;51.954;20.118;2022-08-04T17:32:47;4.30;;;3.80;;
35847;SDS011;22332;51.954;20.118;2022-08-04T17:35:53;4.40;;;3.60;;
35847;SDS011;22332;51.954;20.118;2022-08-04T17:39:02;4.30;;;3.90;;
35847;SDS011;22332;51.954;20.118;2022-08-04T17:42:15;3.90;;;3.60;;
35847;SDS011;22332;51.954;20.118;2022-08-04T17:45:32;5.00;;;4.10;;
35847;SDS011;22332;51.954;20.118;2022-08-04T17:48:39;4.00;;;3.70;;
35847;SDS011;22332;51.954;20.118;2022-08-04T17:51:46;4.50;;;3.70;;
35847;SDS011;22332;51.954;20.118;2022-08-04T17:54:58;4.50;;;3.70;;
35847;SDS011;22332;51.954;20.118;2022-08-04T17:58:14;4.80;;;4.00;;
35847;SDS011;22332;51.954;20.118;2022-08-04T18:01:21;4.40;;;3.80;;
35847;SDS011;22332;51.954;20.118;2022-08-04T18:04:31;4.40;;;4.00;;
35847;SDS011;22332;51.954;20.118;2022-08-04T18:07:39;4.50;;;4.00;;
35847;SDS011;22332;51.954;20.118;2022-08-04T18:10:46;4.80;;;4.40;;
35847;SDS011;22332;51.954;20.118;2022-08-04T18:13:53;4.80;;;4.40;;
35847;SDS011;22332;51.954;20.118;2022-08-04T18:16:59;5.80;;;5.10;;
35847;SDS011;22332;51.954;20.118;2022-08-04T18:20:05;5.40;;;4.90;;
35847;SDS011;22332;51.954;20.118;2022-08-04T18:23:14;6.50;;;5.10;;
35847;SDS011;22332;51.954;20.118;2022-08-04T18:26:19;6.30;;;5.50;;
35847;SDS011;22332;51.954;20.118;2022-08-04T18:29:24;5.80;;;5.20;;
35847;SDS011;22332;51.954;20.118;2022-08-04T18:32:30;5.00;;;4.60;;
35847;SDS011;22332;51.954;20.118;2022-08-04T18:35:37;5.40;;;4.90;;
35847;SDS011;22332;51.954;20.118;2022-08-04T18:38:42;5.50;;;4.90;;
35847;SDS011;22332;51.954;20.118;2022-08-04T18:41:47;5.50;;;5.00;;
35847;SDS011;22332;51.954;20.118;2022-08-04T18:44:53;5.20;;;4.70;;
35847;SDS011;22332;51.954;20.118;2022-08-04T18:47:59;5.90;;;5.10;;
35847;SDS011;22332;51.954;20.118;2022-08-04T18:51:04;5.60;;;5.10;;
35847;SDS011;22332;51.954;20.118;2022-08-04T18:54:10;5.90;;;5.30;;
35847;SDS011;22332;51.954;20.118;2022-08-04T18:57:18;5.20;;;4.70;;
35847;SDS011;22332;51.954;20.118;2022-08-04T19:00:24;5.20;;;4.60;;
35847;SDS011;22332;51.954;20.118;2022-08-04T19:03:30;5.30;;;4.70;;
35847;SDS011;22332;51.954;20.118;2022-08-04T19:06:35;5.60;;;4.80;;
35847;SDS011;22332;51.954;20.118;2022-08-04T19:09:43;5.80;;;4.50;;
35847;SDS011;22332;51.954;20.118;2022-08-04T19:12:48;5.20;;;4.80;;
35847;SDS011;22332;51.954;20.118;2022-08-04T19:15:55;5.30;;;4.70;;
35847;SDS011;22332;51.954;20.118;2022-08-04T19:19:02;5.40;;;4.90;;
35847;SDS011;22332;51.954;20.118;2022-08-04T19:22:08;6.20;;;5.60;;
35847;SDS011;22332;51.954;20.118;2022-08-04T19:25:14;7.60;;;5.40;;
35847;SDS011;22332;51.954;20.118;2022-08-04T19:28:19;5.60;;;5.10;;
35847;SDS011;22332;51.954;20.118;2022-08-04T19:31:25;5.70;;;5.10;;
35847;SDS011;22332;51.954;20.118;2022-08-04T19:34:30;6.00;;;5.50;;
35847;SDS011;22332;51.954;20.118;2022-08-04T19:37:36;6.50;;;5.10;;
35847;SDS011;22332;51.954;20.118;2022-08-04T19:40:41;4.70;;;4.30;;
35847;SDS011;22332;51.954;20.118;2022-08-04T19:43:47;6.40;;;5.20;;
35847;SDS011;22332;51.954;20.118;2022-08-04T19:46:53;7.40;;;4.90;;
35847;SDS011;22332;51.954;20.118;2022-08-04T19:49:58;5.80;;;5.20;;